sensor_id;sensor_type;location;lat;lon;timestamp;temperature;humidity
10175;DHT22;18221;38.704;0.152;2023-12-14T00:01:47;13.50;99.90
10175;DHT22;18221;38.704;0.152;2023-12-14T00:04:15;13.50;99.90
10175;DHT22;18221;38.704;0.152;2023-12-14T00:06:43;13.50;99.90
10175;DHT22;18221;38.704;0.152;2023-12-14T00:09:13;13.50;99.90
10175;DHT22;18221;38.704;0.152;2023-12-14T00:11:41;13.50;99.90
10175;DHT22;18221;38.704;0.152;2023-12-14T00:14:09;13.50;99.90
10175;DHT22;18221;38.704;0.152;2023-12-14T00:16:37;13.20;99.90
10175;DHT22;18221;38.704;0.152;2023-12-14T00:19:05;13.50;99.90
10175;DHT22;18221;38.704;0.152;2023-12-14T00:21:33;13.50;99.90
10175;DHT22;18221;38.704;0.152;2023-12-14T00:24:02;13.50;99.90
10175;DHT22;18221;38.704;0.152;2023-12-14T00:26:32;13.50;99.90
10175;DHT22;18221;38.704;0.152;2023-12-14T00:29:00;13.60;99.90
10175;DHT22;18221;38.704;0.152;2023-12-14T00:31:28;13.60;99.90
10175;DHT22;18221;38.704;0.152;2023-12-14T00:33:56;13.50;99.90
10175;DHT22;18221;38.704;0.152;2023-12-14T00:36:24;13.50;99.90
10175;DHT22;18221;38.704;0.152;2023-12-14T00:38:52;13.50;99.90
10175;DHT22;18221;38.704;0.152;2023-12-14T00:41:21;13.50;99.90
10175;DHT22;18221;38.704;0.152;2023-12-14T00:43:51;13.50;99.90
10175;DHT22;18221;38.704;0.152;2023-12-14T00:46:19;13.40;99.90
10175;DHT22;18221;38.704;0.152;2023-12-14T00:48:47;13.40;99.90
10175;DHT22;18221;38.704;0.152;2023-12-14T01:01:38;13.30;99.90
10175;DHT22;18221;38.704;0.152;2023-12-14T01:04:06;13.30;99.90
10175;DHT22;18221;38.704;0.152;2023-12-14T01:06:34;13.30;99.90
10175;DHT22;18221;38.704;0.152;2023-12-14T01:09:02;13.30;99.90
10175;DHT22;18221;38.704;0.152;2023-12-14T01:11:30;13.40;99.90
10175;DHT22;18221;38.704;0.152;2023-12-14T01:13:58;13.30;99.90
10175;DHT22;18221;38.704;0.152;2023-12-14T01:16:26;13.30;99.90
10175;DHT22;18221;38.704;0.152;2023-12-14T01:18:56;13.30;99.90
10175;DHT22;18221;38.704;0.152;2023-12-14T01:21:25;13.30;99.90
10175;DHT22;18221;38.704;0.152;2023-12-14T01:23:53;13.30;99.90
10175;DHT22;18221;38.704;0.152;2023-12-14T01:26:21;13.20;99.90
10175;DHT22;18221;38.704;0.152;2023-12-14T01:28:49;13.20;99.90
10175;DHT22;18221;38.704;0.152;2023-12-14T01:31:17;13.30;99.90
10175;DHT22;18221;38.704;0.152;2023-12-14T01:33:47;13.20;99.90
10175;DHT22;18221;38.704;0.152;2023-12-14T01:36:21;13.20;99.90
10175;DHT22;18221;38.704;0.152;2023-12-14T01:38:50;13.20;99.90
10175;DHT22;18221;38.704;0.152;2023-12-14T01:41:21;13.30;99.90
10175;DHT22;18221;38.704;0.152;2023-12-14T01:43:49;13.30;99.90
10175;DHT22;18221;38.704;0.152;2023-12-14T01:46:17;13.20;99.90
10175;DHT22;18221;38.704;0.152;2023-12-14T01:48:45;13.30;99.90
10175;DHT22;18221;38.704;0.152;2023-12-14T01:51:13;13.20;99.90
10175;DHT22;18221;38.704;0.152;2023-12-14T01:53:42;13.20;99.90
10175;DHT22;18221;38.704;0.152;2023-12-14T01:56:10;13.30;99.90
10175;DHT22;18221;38.704;0.152;2023-12-14T01:58:38;13.20;99.90
10175;DHT22;18221;38.704;0.152;2023-12-14T02:01:10;13.20;99.90
10175;DHT22;18221;38.704;0.152;2023-12-14T02:03:46;13.20;99.90
10175;DHT22;18221;38.704;0.152;2023-12-14T02:06:14;13.20;99.90
10175;DHT22;18221;38.704;0.152;2023-12-14T02:08:44;13.20;99.90
10175;DHT22;18221;38.704;0.152;2023-12-14T02:11:12;13.20;99.90
10175;DHT22;18221;38.704;0.152;2023-12-14T02:13:40;13.20;99.90
10175;DHT22;18221;38.704;0.152;2023-12-14T02:16:09;13.10;99.90
10175;DHT22;18221;38.704;0.152;2023-12-14T02:18:37;13.20;99.90
10175;DHT22;18221;38.704;0.152;2023-12-14T02:21:05;13.20;99.90
10175;DHT22;18221;38.704;0.152;2023-12-14T02:23:35;13.10;99.90
10175;DHT22;18221;38.704;0.152;2023-12-14T02:26:09;13.20;99.90
10175;DHT22;18221;38.704;0.152;2023-12-14T02:28:37;13.10;99.90
10175;DHT22;18221;38.704;0.152;2023-12-14T02:31:05;13.10;99.90
10175;DHT22;18221;38.704;0.152;2023-12-14T02:33:33;13.10;99.90
10175;DHT22;18221;38.704;0.152;2023-12-14T02:36:01;13.10;99.90
10175;DHT22;18221;38.704;0.152;2023-12-14T02:38:30;13.10;99.90
10175;DHT22;18221;38.704;0.152;2023-12-14T02:40:59;13.10;99.90
10175;DHT22;18221;38.704;0.152;2023-12-14T02:43:27;13.00;99.90
10175;DHT22;18221;38.704;0.152;2023-12-14T02:45:55;13.00;99.90
10175;DHT22;18221;38.704;0.152;2023-12-14T02:48:37;13.00;99.90
10175;DHT22;18221;38.704;0.152;2023-12-14T02:51:15;13.00;99.90
10175;DHT22;18221;38.704;0.152;2023-12-14T02:53:43;13.00;99.90
10175;DHT22;18221;38.704;0.152;2023-12-14T02:56:12;13.00;99.90
10175;DHT22;18221;38.704;0.152;2023-12-14T02:58:41;13.00;99.90
10175;DHT22;18221;38.704;0.152;2023-12-14T03:01:10;13.00;99.90
10175;DHT22;18221;38.704;0.152;2023-12-14T03:03:43;12.90;99.90
10175;DHT22;18221;38.704;0.152;2023-12-14T03:06:12;12.90;99.90
10175;DHT22;18221;38.704;0.152;2023-12-14T03:08:40;13.00;99.90
10175;DHT22;18221;38.704;0.152;2023-12-14T03:11:08;13.00;99.90
10175;DHT22;18221;38.704;0.152;2023-12-14T03:13:37;13.00;99.90
10175;DHT22;18221;38.704;0.152;2023-12-14T03:16:07;13.00;99.90
10175;DHT22;18221;38.704;0.152;2023-12-14T03:18:35;12.90;99.90
10175;DHT22;18221;38.704;0.152;2023-12-14T03:21:04;12.90;99.90
10175;DHT22;18221;38.704;0.152;2023-12-14T03:23:32;12.90;99.90
10175;DHT22;18221;38.704;0.152;2023-12-14T03:26:00;12.90;99.90
10175;DHT22;18221;38.704;0.152;2023-12-14T03:28:28;12.90;99.90
10175;DHT22;18221;38.704;0.152;2023-12-14T03:30:57;12.90;99.90
10175;DHT22;18221;38.704;0.152;2023-12-14T03:33:25;12.90;99.90
10175;DHT22;18221;38.704;0.152;2023-12-14T03:35:53;12.90;99.90
10175;DHT22;18221;38.704;0.152;2023-12-14T03:38:21;12.90;99.90
10175;DHT22;18221;38.704;0.152;2023-12-14T03:40:49;12.90;99.90
10175;DHT22;18221;38.704;0.152;2023-12-14T03:43:17;12.90;99.90
10175;DHT22;18221;38.704;0.152;2023-12-14T03:45:45;12.90;99.90
10175;DHT22;18221;38.704;0.152;2023-12-14T03:48:15;12.80;99.90
10175;DHT22;18221;38.704;0.152;2023-12-14T03:50:43;12.80;99.90
10175;DHT22;18221;38.704;0.152;2023-12-14T03:53:11;12.80;99.90
10175;DHT22;18221;38.704;0.152;2023-12-14T03:55:39;13.70;99.90
10175;DHT22;18221;38.704;0.152;2023-12-14T03:58:07;12.80;99.90
10175;DHT22;18221;38.704;0.152;2023-12-14T04:00:35;12.80;99.90
10175;DHT22;18221;38.704;0.152;2023-12-14T04:03:03;12.80;99.90
10175;DHT22;18221;38.704;0.152;2023-12-14T04:05:33;12.80;99.90
10175;DHT22;18221;38.704;0.152;2023-12-14T04:08:01;12.90;99.90
10175;DHT22;18221;38.704;0.152;2023-12-14T04:10:29;12.90;99.90
10175;DHT22;18221;38.704;0.152;2023-12-14T04:12:57;12.90;99.90
10175;DHT22;18221;38.704;0.152;2023-12-14T04:15:25;12.90;99.90
10175;DHT22;18221;38.704;0.152;2023-12-14T04:17:53;12.90;99.90
10175;DHT22;18221;38.704;0.152;2023-12-14T04:20:22;12.90;99.90
10175;DHT22;18221;38.704;0.152;2023-12-14T04:22:51;12.90;99.90
10175;DHT22;18221;38.704;0.152;2023-12-14T04:25:19;12.90;99.90
10175;DHT22;18221;38.704;0.152;2023-12-14T04:27:47;12.90;99.90
10175;DHT22;18221;38.704;0.152;2023-12-14T04:30:15;12.90;99.90
10175;DHT22;18221;38.704;0.152;2023-12-14T04:32:43;12.90;99.90
10175;DHT22;18221;38.704;0.152;2023-12-14T04:35:12;12.90;99.90
10175;DHT22;18221;38.704;0.152;2023-12-14T04:37:41;12.80;99.90
10175;DHT22;18221;38.704;0.152;2023-12-14T04:40:13;12.80;99.90
10175;DHT22;18221;38.704;0.152;2023-12-14T04:42:41;12.80;99.90
10175;DHT22;18221;38.704;0.152;2023-12-14T04:45:09;12.80;99.90
10175;DHT22;18221;38.704;0.152;2023-12-14T04:47:41;12.80;99.90
10175;DHT22;18221;38.704;0.152;2023-12-14T04:50:09;12.80;99.90
10175;DHT22;18221;38.704;0.152;2023-12-14T04:52:38;12.70;99.90
10175;DHT22;18221;38.704;0.152;2023-12-14T04:55:07;12.70;99.90
10175;DHT22;18221;38.704;0.152;2023-12-14T04:57:36;12.70;99.90
10175;DHT22;18221;38.704;0.152;2023-12-14T05:00:05;12.70;99.90
10175;DHT22;18221;38.704;0.152;2023-12-14T05:02:35;12.70;99.90
10175;DHT22;18221;38.704;0.152;2023-12-14T05:05:03;12.70;99.90
10175;DHT22;18221;38.704;0.152;2023-12-14T05:07:32;12.70;99.90
10175;DHT22;18221;38.704;0.152;2023-12-14T05:10:00;12.70;99.90
10175;DHT22;18221;38.704;0.152;2023-12-14T05:12:28;12.70;99.90
10175;DHT22;18221;38.704;0.152;2023-12-14T05:14:59;12.70;99.90
10175;DHT22;18221;38.704;0.152;2023-12-14T05:17:26;12.70;99.90
10175;DHT22;18221;38.704;0.152;2023-12-14T05:19:54;12.70;99.90
10175;DHT22;18221;38.704;0.152;2023-12-14T05:22:25;12.60;99.90
10175;DHT22;18221;38.704;0.152;2023-12-14T05:24:56;12.60;99.90
10175;DHT22;18221;38.704;0.152;2023-12-14T05:27:24;12.70;99.90
10175;DHT22;18221;38.704;0.152;2023-12-14T05:29:52;12.60;99.90
10175;DHT22;18221;38.704;0.152;2023-12-14T05:32:21;12.60;99.90
10175;DHT22;18221;38.704;0.152;2023-12-14T05:34:49;12.60;99.90
10175;DHT22;18221;38.704;0.152;2023-12-14T05:37:18;12.60;99.90
10175;DHT22;18221;38.704;0.152;2023-12-14T05:39:48;12.60;99.90
10175;DHT22;18221;38.704;0.152;2023-12-14T05:42:17;12.60;99.90
10175;DHT22;18221;38.704;0.152;2023-12-14T05:44:46;14.50;99.90
10175;DHT22;18221;38.704;0.152;2023-12-14T05:47:13;12.50;99.90
10175;DHT22;18221;38.704;0.152;2023-12-14T05:49:43;12.50;99.90
10175;DHT22;18221;38.704;0.152;2023-12-14T05:52:12;11.00;99.90
10175;DHT22;18221;38.704;0.152;2023-12-14T05:54:40;12.50;99.90
10175;DHT22;18221;38.704;0.152;2023-12-14T05:57:08;12.50;99.90
10175;DHT22;18221;38.704;0.152;2023-12-14T05:59:39;12.40;99.90
10175;DHT22;18221;38.704;0.152;2023-12-14T06:02:07;12.40;99.90
10175;DHT22;18221;38.704;0.152;2023-12-14T06:04:35;12.50;99.90
10175;DHT22;18221;38.704;0.152;2023-12-14T06:07:04;12.50;99.90
10175;DHT22;18221;38.704;0.152;2023-12-14T06:09:32;12.50;99.90
10175;DHT22;18221;38.704;0.152;2023-12-14T06:12:01;12.50;99.90
10175;DHT22;18221;38.704;0.152;2023-12-14T06:14:30;12.50;99.90
10175;DHT22;18221;38.704;0.152;2023-12-14T06:16:58;12.50;99.90
10175;DHT22;18221;38.704;0.152;2023-12-14T06:19:26;12.60;99.90
10175;DHT22;18221;38.704;0.152;2023-12-14T06:21:56;12.60;99.90
10175;DHT22;18221;38.704;0.152;2023-12-14T06:24:26;12.50;99.90
10175;DHT22;18221;38.704;0.152;2023-12-14T06:26:54;12.50;99.90
10175;DHT22;18221;38.704;0.152;2023-12-14T06:29:22;12.40;99.90
10175;DHT22;18221;38.704;0.152;2023-12-14T06:31:50;12.40;99.90
10175;DHT22;18221;38.704;0.152;2023-12-14T06:34:18;12.40;99.90
10175;DHT22;18221;38.704;0.152;2023-12-14T06:36:46;12.40;99.90
10175;DHT22;18221;38.704;0.152;2023-12-14T06:39:14;12.40;99.90
10175;DHT22;18221;38.704;0.152;2023-12-14T06:41:43;12.40;99.90
10175;DHT22;18221;38.704;0.152;2023-12-14T06:44:11;12.40;99.90
10175;DHT22;18221;38.704;0.152;2023-12-14T06:46:39;12.30;99.90
10175;DHT22;18221;38.704;0.152;2023-12-14T06:49:08;12.30;99.90
10175;DHT22;18221;38.704;0.152;2023-12-14T06:51:36;12.40;99.90
10175;DHT22;18221;38.704;0.152;2023-12-14T06:54:04;12.40;99.90
10175;DHT22;18221;38.704;0.152;2023-12-14T06:56:32;12.30;99.90
10175;DHT22;18221;38.704;0.152;2023-12-14T06:59:01;12.40;99.90
10175;DHT22;18221;38.704;0.152;2023-12-14T07:01:29;12.40;99.90
10175;DHT22;18221;38.704;0.152;2023-12-14T07:03:57;12.40;99.90
10175;DHT22;18221;38.704;0.152;2023-12-14T07:06:25;12.30;99.90
10175;DHT22;18221;38.704;0.152;2023-12-14T07:08:53;12.30;99.90
10175;DHT22;18221;38.704;0.152;2023-12-14T07:11:21;12.20;99.90
10175;DHT22;18221;38.704;0.152;2023-12-14T07:13:48;12.20;99.90
10175;DHT22;18221;38.704;0.152;2023-12-14T07:16:17;12.20;99.90
10175;DHT22;18221;38.704;0.152;2023-12-14T07:18:49;12.30;99.90
10175;DHT22;18221;38.704;0.152;2023-12-14T07:21:17;12.20;99.90
10175;DHT22;18221;38.704;0.152;2023-12-14T07:23:45;12.20;99.90
10175;DHT22;18221;38.704;0.152;2023-12-14T07:26:13;12.20;99.90
10175;DHT22;18221;38.704;0.152;2023-12-14T07:28:41;12.20;99.90
10175;DHT22;18221;38.704;0.152;2023-12-14T07:31:09;12.20;99.90
10175;DHT22;18221;38.704;0.152;2023-12-14T07:33:38;12.20;99.90
10175;DHT22;18221;38.704;0.152;2023-12-14T07:36:07;12.20;99.90
10175;DHT22;18221;38.704;0.152;2023-12-14T07:38:35;12.20;99.90
10175;DHT22;18221;38.704;0.152;2023-12-14T07:41:03;12.20;99.90
10175;DHT22;18221;38.704;0.152;2023-12-14T07:43:32;12.20;99.90
10175;DHT22;18221;38.704;0.152;2023-12-14T07:46:00;12.20;99.90
10175;DHT22;18221;38.704;0.152;2023-12-14T07:48:27;12.20;99.90
10175;DHT22;18221;38.704;0.152;2023-12-14T07:50:57;12.20;99.90
10175;DHT22;18221;38.704;0.152;2023-12-14T07:53:25;12.20;99.90
10175;DHT22;18221;38.704;0.152;2023-12-14T07:55:53;12.30;99.90
10175;DHT22;18221;38.704;0.152;2023-12-14T07:58:20;12.30;99.90
10175;DHT22;18221;38.704;0.152;2023-12-14T08:00:48;12.30;99.90
10175;DHT22;18221;38.704;0.152;2023-12-14T08:03:16;12.30;99.90
10175;DHT22;18221;38.704;0.152;2023-12-14T08:05:44;12.30;99.90
10175;DHT22;18221;38.704;0.152;2023-12-14T08:08:13;12.30;99.90
10175;DHT22;18221;38.704;0.152;2023-12-14T08:10:41;12.30;99.90
10175;DHT22;18221;38.704;0.152;2023-12-14T08:13:10;12.30;99.90
10175;DHT22;18221;38.704;0.152;2023-12-14T08:15:37;12.30;99.90
10175;DHT22;18221;38.704;0.152;2023-12-14T08:18:06;12.40;99.90
10175;DHT22;18221;38.704;0.152;2023-12-14T08:20:34;12.40;99.90
10175;DHT22;18221;38.704;0.152;2023-12-14T08:23:02;12.40;99.90
10175;DHT22;18221;38.704;0.152;2023-12-14T08:25:30;12.40;99.90
10175;DHT22;18221;38.704;0.152;2023-12-14T08:27:59;12.40;99.90
10175;DHT22;18221;38.704;0.152;2023-12-14T08:30:27;12.50;99.90
10175;DHT22;18221;38.704;0.152;2023-12-14T08:32:55;12.50;99.90
10175;DHT22;18221;38.704;0.152;2023-12-14T08:35:26;12.50;99.90
10175;DHT22;18221;38.704;0.152;2023-12-14T08:37:54;12.50;99.90
10175;DHT22;18221;38.704;0.152;2023-12-14T08:40:22;12.50;99.90
10175;DHT22;18221;38.704;0.152;2023-12-14T08:42:51;12.50;99.90
10175;DHT22;18221;38.704;0.152;2023-12-14T08:45:19;12.50;99.90
10175;DHT22;18221;38.704;0.152;2023-12-14T08:47:47;12.50;99.90
10175;DHT22;18221;38.704;0.152;2023-12-14T08:50:15;12.80;99.90
10175;DHT22;18221;38.704;0.152;2023-12-14T08:52:43;12.60;99.90
10175;DHT22;18221;38.704;0.152;2023-12-14T08:55:14;12.60;99.90
10175;DHT22;18221;38.704;0.152;2023-12-14T08:57:44;12.60;99.90
10175;DHT22;18221;38.704;0.152;2023-12-14T09:00:15;12.60;99.90
10175;DHT22;18221;38.704;0.152;2023-12-14T09:02:44;12.60;99.90
10175;DHT22;18221;38.704;0.152;2023-12-14T09:05:13;12.70;99.90
10175;DHT22;18221;38.704;0.152;2023-12-14T09:07:42;12.70;99.90
10175;DHT22;18221;38.704;0.152;2023-12-14T09:10:10;12.70;99.90
10175;DHT22;18221;38.704;0.152;2023-12-14T09:12:39;12.70;99.90
10175;DHT22;18221;38.704;0.152;2023-12-14T09:15:08;12.70;99.90
10175;DHT22;18221;38.704;0.152;2023-12-14T09:17:39;12.80;99.90
10175;DHT22;18221;38.704;0.152;2023-12-14T09:20:09;12.80;99.90
10175;DHT22;18221;38.704;0.152;2023-12-14T09:22:38;12.80;99.90
10175;DHT22;18221;38.704;0.152;2023-12-14T09:25:07;12.80;99.90
10175;DHT22;18221;38.704;0.152;2023-12-14T09:27:36;12.80;99.90
10175;DHT22;18221;38.704;0.152;2023-12-14T09:30:05;12.90;99.90
10175;DHT22;18221;38.704;0.152;2023-12-14T09:32:34;12.90;99.90
10175;DHT22;18221;38.704;0.152;2023-12-14T09:35:04;12.90;99.90
10175;DHT22;18221;38.704;0.152;2023-12-14T09:37:33;12.90;99.90
10175;DHT22;18221;38.704;0.152;2023-12-14T09:40:01;13.00;99.90
10175;DHT22;18221;38.704;0.152;2023-12-14T09:42:37;13.00;99.90
10175;DHT22;18221;38.704;0.152;2023-12-14T09:45:07;13.00;99.90
10175;DHT22;18221;38.704;0.152;2023-12-14T09:47:36;13.00;99.90
10175;DHT22;18221;38.704;0.152;2023-12-14T09:50:08;13.10;99.90
10175;DHT22;18221;38.704;0.152;2023-12-14T09:52:37;13.10;99.90
10175;DHT22;18221;38.704;0.152;2023-12-14T09:55:05;13.10;99.90
10175;DHT22;18221;38.704;0.152;2023-12-14T09:57:34;13.20;99.90
10175;DHT22;18221;38.704;0.152;2023-12-14T10:00:02;13.20;99.90
10175;DHT22;18221;38.704;0.152;2023-12-14T10:02:32;13.20;99.90
10175;DHT22;18221;38.704;0.152;2023-12-14T10:05:01;13.20;99.90
10175;DHT22;18221;38.704;0.152;2023-12-14T10:07:31;13.20;99.90
10175;DHT22;18221;38.704;0.152;2023-12-14T10:10:10;13.30;99.90
10175;DHT22;18221;38.704;0.152;2023-12-14T10:12:51;13.30;99.90
10175;DHT22;18221;38.704;0.152;2023-12-14T10:15:20;13.30;99.90
10175;DHT22;18221;38.704;0.152;2023-12-14T10:17:51;13.60;99.90
10175;DHT22;18221;38.704;0.152;2023-12-14T10:20:20;13.40;99.90
10175;DHT22;18221;38.704;0.152;2023-12-14T10:22:51;13.40;99.90
10175;DHT22;18221;38.704;0.152;2023-12-14T10:25:22;13.40;99.90
10175;DHT22;18221;38.704;0.152;2023-12-14T10:27:51;13.40;99.90
10175;DHT22;18221;38.704;0.152;2023-12-14T10:30:20;13.40;99.90
10175;DHT22;18221;38.704;0.152;2023-12-14T10:32:49;13.50;99.90
10175;DHT22;18221;38.704;0.152;2023-12-14T10:35:17;13.50;99.90
10175;DHT22;18221;38.704;0.152;2023-12-14T10:37:52;13.50;99.90
10175;DHT22;18221;38.704;0.152;2023-12-14T10:40:23;13.60;99.90
10175;DHT22;18221;38.704;0.152;2023-12-14T10:42:53;13.80;99.90
10175;DHT22;18221;38.704;0.152;2023-12-14T10:45:30;13.60;99.90
10175;DHT22;18221;38.704;0.152;2023-12-14T10:48:01;13.60;99.90
10175;DHT22;18221;38.704;0.152;2023-12-14T10:50:31;13.70;99.90
10175;DHT22;18221;38.704;0.152;2023-12-14T10:53:03;13.70;99.90
10175;DHT22;18221;38.704;0.152;2023-12-14T10:55:36;13.70;99.90
10175;DHT22;18221;38.704;0.152;2023-12-14T10:58:08;13.70;99.90
10175;DHT22;18221;38.704;0.152;2023-12-14T11:00:37;13.80;99.90
10175;DHT22;18221;38.704;0.152;2023-12-14T11:03:05;13.70;99.90
10175;DHT22;18221;38.704;0.152;2023-12-14T11:05:34;13.80;99.90
10175;DHT22;18221;38.704;0.152;2023-12-14T11:08:04;13.80;99.90
10175;DHT22;18221;38.704;0.152;2023-12-14T11:10:41;13.90;99.90
10175;DHT22;18221;38.704;0.152;2023-12-14T11:13:11;13.90;99.90
10175;DHT22;18221;38.704;0.152;2023-12-14T11:15:45;13.90;99.90
10175;DHT22;18221;38.704;0.152;2023-12-14T11:18:26;14.00;99.90
10175;DHT22;18221;38.704;0.152;2023-12-14T11:20:56;14.00;99.90
10175;DHT22;18221;38.704;0.152;2023-12-14T11:23:35;14.00;99.90
10175;DHT22;18221;38.704;0.152;2023-12-14T11:26:09;14.10;99.90
10175;DHT22;18221;38.704;0.152;2023-12-14T11:28:39;14.20;99.90
10175;DHT22;18221;38.704;0.152;2023-12-14T11:31:10;14.20;99.90
10175;DHT22;18221;38.704;0.152;2023-12-14T11:33:39;14.20;99.90
10175;DHT22;18221;38.704;0.152;2023-12-14T11:36:07;14.30;99.90
10175;DHT22;18221;38.704;0.152;2023-12-14T11:38:37;14.30;99.90
10175;DHT22;18221;38.704;0.152;2023-12-14T11:41:06;14.40;99.90
10175;DHT22;18221;38.704;0.152;2023-12-14T11:43:39;14.40;99.90
10175;DHT22;18221;38.704;0.152;2023-12-14T11:46:08;14.40;99.90
10175;DHT22;18221;38.704;0.152;2023-12-14T11:48:37;14.50;99.90
10175;DHT22;18221;38.704;0.152;2023-12-14T11:51:06;14.50;99.90
10175;DHT22;18221;38.704;0.152;2023-12-14T11:53:37;14.60;99.90
10175;DHT22;18221;38.704;0.152;2023-12-14T11:56:06;14.60;99.90
10175;DHT22;18221;38.704;0.152;2023-12-14T11:58:35;14.70;99.90
10175;DHT22;18221;38.704;0.152;2023-12-14T12:01:16;14.60;99.90
10175;DHT22;18221;38.704;0.152;2023-12-14T12:03:46;14.70;99.90
10175;DHT22;18221;38.704;0.152;2023-12-14T12:06:21;14.70;99.90
10175;DHT22;18221;38.704;0.152;2023-12-14T12:08:51;14.80;99.90
10175;DHT22;18221;38.704;0.152;2023-12-14T12:11:20;14.80;99.90
10175;DHT22;18221;38.704;0.152;2023-12-14T12:13:51;14.80;99.90
10175;DHT22;18221;38.704;0.152;2023-12-14T12:16:19;14.90;99.90
10175;DHT22;18221;38.704;0.152;2023-12-14T12:18:47;14.90;99.90
10175;DHT22;18221;38.704;0.152;2023-12-14T12:21:16;14.90;99.90
10175;DHT22;18221;38.704;0.152;2023-12-14T12:23:44;15.00;99.90
10175;DHT22;18221;38.704;0.152;2023-12-14T12:26:14;15.00;99.90
10175;DHT22;18221;38.704;0.152;2023-12-14T12:28:42;15.00;99.90
10175;DHT22;18221;38.704;0.152;2023-12-14T12:31:10;15.10;99.90
10175;DHT22;18221;38.704;0.152;2023-12-14T12:33:38;15.20;99.90
10175;DHT22;18221;38.704;0.152;2023-12-14T12:36:07;15.20;99.90
10175;DHT22;18221;38.704;0.152;2023-12-14T12:38:35;15.30;99.90
10175;DHT22;18221;38.704;0.152;2023-12-14T12:41:06;15.30;99.90
10175;DHT22;18221;38.704;0.152;2023-12-14T12:43:36;15.40;99.90
10175;DHT22;18221;38.704;0.152;2023-12-14T12:46:04;15.40;99.90
10175;DHT22;18221;38.704;0.152;2023-12-14T12:48:32;15.50;99.90
10175;DHT22;18221;38.704;0.152;2023-12-14T12:51:01;15.50;99.90
10175;DHT22;18221;38.704;0.152;2023-12-14T12:53:29;15.50;99.90
10175;DHT22;18221;38.704;0.152;2023-12-14T12:55:58;15.50;99.90
10175;DHT22;18221;38.704;0.152;2023-12-14T12:58:27;15.50;99.90
10175;DHT22;18221;38.704;0.152;2023-12-14T13:00:57;15.50;99.90
10175;DHT22;18221;38.704;0.152;2023-12-14T13:03:25;15.50;99.90
10175;DHT22;18221;38.704;0.152;2023-12-14T13:05:53;15.60;99.90
10175;DHT22;18221;38.704;0.152;2023-12-14T13:08:21;15.60;99.90
10175;DHT22;18221;38.704;0.152;2023-12-14T13:10:49;15.60;99.90
10175;DHT22;18221;38.704;0.152;2023-12-14T13:13:18;15.60;99.90
10175;DHT22;18221;38.704;0.152;2023-12-14T13:15:46;15.60;99.90
10175;DHT22;18221;38.704;0.152;2023-12-14T13:18:15;15.50;99.90
10175;DHT22;18221;38.704;0.152;2023-12-14T13:20:43;15.60;99.90
10175;DHT22;18221;38.704;0.152;2023-12-14T13:23:11;15.60;99.90
10175;DHT22;18221;38.704;0.152;2023-12-14T13:25:39;15.70;99.90
10175;DHT22;18221;38.704;0.152;2023-12-14T13:28:07;15.70;99.90
10175;DHT22;18221;38.704;0.152;2023-12-14T13:30:36;15.80;99.90
10175;DHT22;18221;38.704;0.152;2023-12-14T13:33:05;15.90;99.90
10175;DHT22;18221;38.704;0.152;2023-12-14T13:35:36;15.90;99.90
10175;DHT22;18221;38.704;0.152;2023-12-14T13:38:04;16.00;99.90
10175;DHT22;18221;38.704;0.152;2023-12-14T13:40:33;15.90;99.90
10175;DHT22;18221;38.704;0.152;2023-12-14T13:43:01;15.90;99.90
10175;DHT22;18221;38.704;0.152;2023-12-14T13:45:36;15.90;99.90
10175;DHT22;18221;38.704;0.152;2023-12-14T13:48:04;16.00;99.90
10175;DHT22;18221;38.704;0.152;2023-12-14T13:50:33;16.00;99.90
10175;DHT22;18221;38.704;0.152;2023-12-14T13:53:02;16.00;99.90
10175;DHT22;18221;38.704;0.152;2023-12-14T13:55:31;16.00;99.90
10175;DHT22;18221;38.704;0.152;2023-12-14T13:57:59;16.10;99.90
10175;DHT22;18221;38.704;0.152;2023-12-14T14:00:27;16.10;99.90
10175;DHT22;18221;38.704;0.152;2023-12-14T14:02:55;16.10;99.90
10175;DHT22;18221;38.704;0.152;2023-12-14T14:05:23;16.10;99.90
10175;DHT22;18221;38.704;0.152;2023-12-14T14:07:51;16.10;99.90
10175;DHT22;18221;38.704;0.152;2023-12-14T14:10:20;16.10;99.90
10175;DHT22;18221;38.704;0.152;2023-12-14T14:12:49;16.00;99.90
10175;DHT22;18221;38.704;0.152;2023-12-14T14:15:18;16.10;99.90
10175;DHT22;18221;38.704;0.152;2023-12-14T14:17:47;16.10;99.90
10175;DHT22;18221;38.704;0.152;2023-12-14T14:20:17;16.10;99.90
10175;DHT22;18221;38.704;0.152;2023-12-14T14:22:46;16.20;99.90
10175;DHT22;18221;38.704;0.152;2023-12-14T14:25:14;16.10;99.90
10175;DHT22;18221;38.704;0.152;2023-12-14T14:27:44;16.10;99.90
10175;DHT22;18221;38.704;0.152;2023-12-14T14:30:14;16.20;99.90
10175;DHT22;18221;38.704;0.152;2023-12-14T14:32:43;16.20;99.90
10175;DHT22;18221;38.704;0.152;2023-12-14T14:35:11;16.20;99.90
10175;DHT22;18221;38.704;0.152;2023-12-14T14:37:39;16.30;99.90
10175;DHT22;18221;38.704;0.152;2023-12-14T14:40:11;16.30;99.90
10175;DHT22;18221;38.704;0.152;2023-12-14T14:42:40;16.20;99.90
10175;DHT22;18221;38.704;0.152;2023-12-14T14:45:10;16.20;99.90
10175;DHT22;18221;38.704;0.152;2023-12-14T14:47:40;16.30;99.90
10175;DHT22;18221;38.704;0.152;2023-12-14T14:50:09;16.30;99.90
10175;DHT22;18221;38.704;0.152;2023-12-14T14:52:37;16.30;99.90
10175;DHT22;18221;38.704;0.152;2023-12-14T14:55:06;16.30;99.90
10175;DHT22;18221;38.704;0.152;2023-12-14T14:57:34;16.30;99.90
10175;DHT22;18221;38.704;0.152;2023-12-14T15:00:03;16.30;99.90
10175;DHT22;18221;38.704;0.152;2023-12-14T15:02:33;16.40;99.90
10175;DHT22;18221;38.704;0.152;2023-12-14T15:05:01;16.40;99.90
10175;DHT22;18221;38.704;0.152;2023-12-14T15:07:29;16.40;99.90
10175;DHT22;18221;38.704;0.152;2023-12-14T15:09:57;16.40;99.90
10175;DHT22;18221;38.704;0.152;2023-12-14T15:12:25;16.40;99.90
10175;DHT22;18221;38.704;0.152;2023-12-14T15:14:53;16.40;99.90
10175;DHT22;18221;38.704;0.152;2023-12-14T15:17:22;16.40;99.90
10175;DHT22;18221;38.704;0.152;2023-12-14T15:19:52;16.40;99.90
10175;DHT22;18221;38.704;0.152;2023-12-14T15:22:20;16.40;99.90
10175;DHT22;18221;38.704;0.152;2023-12-14T15:24:48;16.30;99.90
10175;DHT22;18221;38.704;0.152;2023-12-14T15:27:17;16.30;99.90
10175;DHT22;18221;38.704;0.152;2023-12-14T15:29:45;14.30;99.90
10175;DHT22;18221;38.704;0.152;2023-12-14T15:32:13;16.30;99.90
10175;DHT22;18221;38.704;0.152;2023-12-14T15:34:41;16.20;99.90
10175;DHT22;18221;38.704;0.152;2023-12-14T15:37:11;15.90;99.90
10175;DHT22;18221;38.704;0.152;2023-12-14T15:39:39;16.20;99.90
10175;DHT22;18221;38.704;0.152;2023-12-14T15:42:07;16.10;99.90
10175;DHT22;18221;38.704;0.152;2023-12-14T15:44:35;16.10;99.90
10175;DHT22;18221;38.704;0.152;2023-12-14T15:47:03;16.10;99.90
10175;DHT22;18221;38.704;0.152;2023-12-14T15:49:35;16.10;99.90
10175;DHT22;18221;38.704;0.152;2023-12-14T15:52:03;16.00;99.90